ESSD Airport Information

Runway Information
Runway 14 Length 7579 ft width 148 ft
Elevation 503 ft Threshold 0 ft Heading 133
Runway 32 Length 7579 ft Width 148 ft
Elevation 493 ft Threshold 0 ft Heading 313
Airport Frequencies
Type TWR Name TWR Frequency 127.3 MHZ
Airport Navaids
Type VOR-DME Name Borlange Frequency 117600 KHZ
Airport Weather Information & NOTAM
ADDS - METARS form results

(0519 UTC 23 September 2021)
Data provider http://aviationweather.gov/metar/data/
 
METAR text: ESSD 230450Z AUTO 18005KT 150V210 8000 -RA SCT008/// BKN011/// OVC016/// 12/12 Q0997
Conditions at: ESSD (BORLANGE (SWE-AF, SE) observed 0450 UTC 23 September 2021
Temperature: 12.0°C (54°F)
Dewpoint: 12.0°C (54°F) [RH = 100%]
Pressure (altimeter): 29.44 inches Hg (997.0 mb)
Winds: from the S (180 degrees) at 6 MPH (5 knots; 2.6 m/s)
Visibility: 5 miles ( 8 km)
Ceiling: 1100 feet AGL
Clouds: scattered clouds at 800 feet AGL
broken clouds at 1100 feet AGL
overcast cloud deck at 1600 feet AGL
Weather: -RA  (light rain)

METAR text: ESSD 230420Z AUTO 19004KT 160V220 8000 SCT011/// 12/12 Q0998 REDZ
Conditions at: ESSD (BORLANGE (SWE-AF, SE) observed 0420 UTC 23 September 2021
Temperature: 12.0°C (54°F)
Dewpoint: 12.0°C (54°F) [RH = 100%]
Pressure (altimeter): 29.47 inches Hg (998.0 mb)
Winds: from the S (190 degrees) at 5 MPH (4 knots; 2.1 m/s)
Visibility: 5 miles ( 8 km)
Ceiling: at least 12,000 feet AGL
Clouds: scattered clouds at 1100 feet AGL
Weather: no significant weather observed at this time